createdAt,value
2017-09-22T00:00:31.690Z,11.23
2017-09-22T00:02:59.261Z,11.47
2017-09-22T00:05:26.868Z,11.37
2017-09-22T00:07:54.586Z,12.13
2017-09-22T00:10:22.171Z,11.67
2017-09-22T00:12:49.758Z,12.00
2017-09-22T00:15:17.340Z,11.40
2017-09-22T00:17:45.702Z,11.50
2017-09-22T00:20:13.282Z,10.77
2017-09-22T00:22:41.625Z,10.70
2017-09-22T00:25:09.210Z,12.30
2017-09-22T00:27:37.563Z,11.60
2017-09-22T00:30:05.148Z,11.10
2017-09-22T00:32:32.745Z,12.20
2017-09-22T00:35:01.124Z,12.23
2017-09-22T00:37:28.702Z,12.17
2017-09-22T00:39:56.290Z,11.27
2017-09-22T00:42:31.514Z,12.07
2017-09-22T00:44:59.207Z,12.10
2017-09-22T00:47:26.786Z,11.27
2017-09-22T00:49:54.363Z,11.70
2017-09-22T00:52:22.700Z,11.20
2017-09-22T00:54:50.271Z,10.93
2017-09-22T00:57:17.859Z,11.50
2017-09-22T00:59:46.193Z,11.67
2017-09-22T01:02:13.778Z,11.40
2017-09-22T01:04:41.375Z,11.90
2017-09-22T01:07:08.954Z,11.73
2017-09-22T01:09:36.508Z,11.53
2017-09-22T01:12:04.073Z,11.50
2017-09-22T01:14:31.637Z,11.40
2017-09-22T01:16:59.206Z,11.47
2017-09-22T01:19:26.767Z,10.60
2017-09-22T01:21:54.346Z,11.03
2017-09-22T01:24:21.925Z,11.00
2017-09-22T01:26:50.289Z,11.40
2017-09-22T01:29:17.858Z,11.43
2017-09-22T01:31:45.433Z,11.80
2017-09-22T01:34:13.764Z,11.47
2017-09-22T01:36:41.390Z,10.90
2017-09-22T01:39:09.707Z,11.40
2017-09-22T01:41:37.286Z,11.60
2017-09-22T01:44:04.849Z,11.13
2017-09-22T01:46:32.416Z,11.80
2017-09-22T01:49:00.003Z,11.67
2017-09-22T01:51:27.558Z,12.00
2017-09-22T01:53:55.905Z,11.53
2017-09-22T01:56:23.458Z,10.73
2017-09-22T01:58:51.019Z,11.30
2017-09-22T02:01:18.577Z,11.70
2017-09-22T02:03:46.142Z,10.70
2017-09-22T02:06:13.694Z,10.50
2017-09-22T02:08:41.286Z,10.63
2017-09-22T02:11:08.861Z,10.70
2017-09-22T02:13:36.437Z,11.30
2017-09-22T02:16:04.004Z,11.50
2017-09-22T02:18:31.569Z,10.77
2017-09-22T02:20:59.935Z,9.27
2017-09-22T02:23:27.492Z,10.53
2017-09-22T02:25:55.077Z,11.03
2017-09-22T02:28:22.655Z,10.67
2017-09-22T02:30:50.217Z,10.37
2017-09-22T02:33:17.795Z,10.60
2017-09-22T02:35:45.367Z,10.53
2017-09-22T02:38:13.718Z,10.53
2017-09-22T02:40:41.291Z,11.90
2017-09-22T02:43:08.866Z,11.80
2017-09-22T02:45:37.226Z,11.07
2017-09-22T02:48:04.858Z,10.60
2017-09-22T02:50:32.457Z,10.13
2017-09-22T02:53:00.074Z,11.27
2017-09-22T02:55:27.623Z,10.77
2017-09-22T02:57:55.445Z,11.10
2017-09-22T03:00:23.828Z,10.70
2017-09-22T03:02:52.230Z,10.50
2017-09-22T03:05:19.789Z,11.30
2017-09-22T03:07:47.350Z,10.37
2017-09-22T03:10:14.917Z,11.20
2017-09-22T03:12:42.487Z,11.30
2017-09-22T03:15:10.077Z,11.70
2017-09-22T03:17:37.635Z,10.90
2017-09-22T03:20:05.197Z,11.20
2017-09-22T03:22:32.773Z,11.37
2017-09-22T03:25:00.350Z,11.57
2017-09-22T03:27:28.657Z,11.20
2017-09-22T03:29:56.217Z,10.50
2017-09-22T03:32:23.814Z,11.87
2017-09-22T03:34:51.381Z,11.27
2017-09-22T03:37:18.961Z,11.70
2017-09-22T03:39:47.288Z,11.30
2017-09-22T03:42:14.842Z,11.57
2017-09-22T03:44:42.434Z,11.80
2017-09-22T03:47:10.010Z,12.10
2017-09-22T03:49:37.587Z,10.77
2017-09-22T03:52:05.934Z,10.00
2017-09-22T03:54:33.497Z,11.23
2017-09-22T03:57:01.053Z,9.67
2017-09-22T03:59:28.626Z,10.87
2017-09-22T04:01:56.181Z,10.70
2017-09-22T04:04:24.534Z,9.53
2017-09-22T04:06:52.157Z,10.43
2017-09-22T04:09:21.127Z,10.40
2017-09-22T04:17:47.750Z,10.33
2017-09-22T04:20:16.047Z,10.83
2017-09-22T04:22:43.775Z,10.77
2017-09-22T04:25:11.391Z,10.07
2017-09-22T04:27:39.651Z,10.23
2017-09-22T04:30:07.278Z,10.87
2017-09-22T04:32:34.859Z,10.67
2017-09-22T04:35:02.474Z,11.27
2017-09-22T04:37:30.041Z,10.60
2017-09-22T04:39:57.660Z,10.87
2017-09-22T04:42:25.257Z,11.30
2017-09-22T04:44:52.836Z,11.10
2017-09-22T04:47:20.409Z,12.77
2017-09-22T04:49:47.982Z,12.23
2017-09-22T04:52:15.530Z,12.20
2017-09-22T04:54:43.097Z,11.20
2017-09-22T04:57:10.841Z,11.20
2017-09-22T04:59:38.402Z,11.93
2017-09-22T05:02:05.988Z,12.20
2017-09-22T05:04:33.554Z,12.10
2017-09-22T05:07:01.114Z,11.77
2017-09-22T05:09:28.727Z,12.03
2017-09-22T05:11:56.297Z,11.40
2017-09-22T05:14:23.830Z,11.57
2017-09-22T05:16:52.153Z,11.17
2017-09-22T05:19:19.734Z,12.43
2017-09-22T05:21:47.302Z,11.47
2017-09-22T05:24:14.888Z,11.97
2017-09-22T05:26:43.216Z,10.33
2017-09-22T05:29:10.787Z,11.77
2017-09-22T05:31:38.361Z,12.50
2017-09-22T05:34:05.910Z,11.67
2017-09-22T05:36:33.538Z,12.03
2017-09-22T05:39:01.089Z,11.23
2017-09-22T05:41:28.662Z,12.60
2017-09-22T05:43:56.208Z,12.67
2017-09-22T05:46:23.772Z,12.07
2017-09-22T05:48:51.337Z,13.90
2017-09-22T05:51:18.903Z,12.23
2017-09-22T05:53:46.462Z,12.53
2017-09-22T05:56:14.035Z,12.47
2017-09-22T05:58:41.631Z,11.80
2017-09-22T06:01:09.210Z,11.30
2017-09-22T06:03:37.537Z,11.90
2017-09-22T06:06:05.123Z,12.63
2017-09-22T06:08:32.706Z,12.17
2017-09-22T06:11:01.042Z,12.80
2017-09-22T06:13:28.634Z,13.20
2017-09-22T06:15:56.970Z,12.47
2017-09-22T06:18:24.572Z,12.07
2017-09-22T06:20:52.899Z,12.47
2017-09-22T06:23:20.486Z,12.40
2017-09-22T06:25:48.050Z,11.57
2017-09-22T06:28:15.635Z,12.30
2017-09-22T06:30:43.954Z,13.20
2017-09-22T06:33:12.753Z,13.00
2017-09-22T06:35:42.445Z,13.30
2017-09-22T06:38:10.026Z,13.70
2017-09-22T06:40:37.640Z,13.70
2017-09-22T06:43:05.989Z,14.03
2017-09-22T06:45:33.575Z,13.80
2017-09-22T06:48:01.924Z,14.27
2017-09-22T06:50:29.535Z,15.40
2017-09-22T06:52:57.111Z,15.23
2017-09-22T06:55:24.675Z,14.60
2017-09-22T06:57:52.264Z,14.40
2017-09-22T07:00:19.818Z,14.60
2017-09-22T07:02:47.387Z,14.60
2017-09-22T07:08:09.685Z,15.83
2017-09-22T07:10:38.276Z,15.23
2017-09-22T07:13:05.852Z,14.30
2017-09-22T07:15:33.852Z,18.83
2017-09-22T07:18:01.434Z,18.10
2017-09-22T07:20:28.992Z,19.57
2017-09-22T07:22:56.652Z,18.40
2017-09-22T07:25:24.659Z,18.93
2017-09-22T07:27:52.464Z,20.23
2017-09-22T07:30:28.267Z,22.10
2017-09-22T07:32:56.129Z,22.73
2017-09-22T07:35:24.520Z,23.60
2017-09-22T07:37:52.107Z,27.20
2017-09-22T07:40:21.714Z,29.37
2017-09-22T07:42:49.305Z,28.27
2017-09-22T07:45:16.907Z,30.43
2017-09-22T07:47:47.213Z,30.40
2017-09-22T07:50:14.816Z,30.60
2017-09-22T07:52:42.395Z,31.03
2017-09-22T07:55:09.954Z,29.90
2017-09-22T07:57:37.497Z,28.40
2017-09-22T08:00:05.195Z,29.57
2017-09-22T08:02:32.768Z,27.20
2017-09-22T08:05:00.341Z,26.27
2017-09-22T08:07:27.940Z,25.37
2017-09-22T08:09:56.270Z,26.73
2017-09-22T08:12:24.441Z,24.20
2017-09-22T08:14:52.025Z,24.03
2017-09-22T08:17:19.638Z,25.00
2017-09-22T08:19:47.637Z,20.53
2017-09-22T08:22:15.224Z,20.60
2017-09-22T08:24:43.654Z,19.77
2017-09-22T08:27:11.238Z,19.27
2017-09-22T08:29:38.808Z,20.47
2017-09-22T08:32:06.436Z,18.73
2017-09-22T08:34:34.030Z,18.30
2017-09-22T08:37:01.606Z,19.47
2017-09-22T08:39:29.202Z,18.33
2017-09-22T08:41:56.781Z,18.60
2017-09-22T08:44:24.332Z,18.03
2017-09-22T08:46:51.901Z,17.57
2017-09-22T08:49:19.759Z,18.27
2017-09-22T08:51:47.541Z,18.60
2017-09-22T08:54:15.156Z,17.40
2017-09-22T08:56:42.729Z,17.30
2017-09-22T08:59:10.273Z,17.57
2017-09-22T09:01:38.607Z,17.07
2017-09-22T09:04:06.167Z,16.50
2017-09-22T09:06:33.746Z,16.90
2017-09-22T09:09:01.325Z,16.33
2017-09-22T09:11:29.663Z,17.00
2017-09-22T09:13:57.241Z,17.17
2017-09-22T09:16:24.781Z,16.50
2017-09-22T09:18:52.371Z,16.67
2017-09-22T09:21:19.909Z,16.40
2017-09-22T09:23:47.468Z,16.50
2017-09-22T09:26:15.033Z,16.83
2017-09-22T09:28:42.630Z,16.80
2017-09-22T09:31:10.978Z,16.47
2017-09-22T09:33:38.522Z,17.47
2017-09-22T09:36:06.150Z,16.60
2017-09-22T09:38:33.718Z,17.60
2017-09-22T09:41:01.271Z,17.60
2017-09-22T09:43:28.873Z,16.70
2017-09-22T09:45:56.417Z,17.63
2017-09-22T09:48:24.014Z,17.13
2017-09-22T09:50:51.564Z,18.00
2017-09-22T09:53:19.154Z,17.10
2017-09-22T09:55:47.494Z,17.57
2017-09-22T09:58:15.066Z,16.90
2017-09-22T10:00:42.698Z,18.13
2017-09-22T10:03:10.298Z,17.27
2017-09-22T10:05:37.885Z,18.93
2017-09-22T10:08:05.462Z,17.90
2017-09-22T10:10:33.034Z,17.43
2017-09-22T10:13:00.593Z,18.60
2017-09-22T10:15:28.150Z,18.07
2017-09-22T10:17:55.751Z,18.27
2017-09-22T10:20:23.318Z,17.97
2017-09-22T10:22:52.217Z,19.17
2017-09-22T10:25:19.834Z,19.73
2017-09-22T10:27:48.412Z,22.13
2017-09-22T10:30:15.986Z,22.50
2017-09-22T10:32:43.548Z,21.37
2017-09-22T10:35:11.134Z,22.87
2017-09-22T10:37:38.773Z,17.20
2017-09-22T10:40:06.346Z,17.10
2017-09-22T10:42:33.894Z,15.23
2017-09-22T10:45:02.661Z,24.83
2017-09-22T10:47:30.228Z,32.60
2017-09-22T10:49:57.811Z,17.37
2017-09-22T10:52:25.406Z,14.50
2017-09-22T10:54:53.717Z,12.80
2017-09-22T10:57:21.278Z,12.90
2017-09-22T10:59:48.841Z,13.70
2017-09-22T11:02:16.421Z,11.80
2017-09-22T11:04:43.977Z,10.53
2017-09-22T11:07:11.547Z,11.57
2017-09-22T11:09:39.107Z,12.07
2017-09-22T11:12:06.710Z,10.70
2017-09-22T11:14:34.246Z,9.93
2017-09-22T11:17:01.839Z,9.90
2017-09-22T11:19:30.173Z,10.37
2017-09-22T11:21:57.754Z,9.57
2017-09-22T11:24:25.318Z,10.30
2017-09-22T11:26:52.883Z,10.33
2017-09-22T11:29:20.468Z,10.33
2017-09-22T11:31:47.522Z,10.63
2017-09-22T11:34:15.485Z,9.47
2017-09-22T11:36:43.826Z,10.40
2017-09-22T11:39:11.422Z,10.80
2017-09-22T11:41:39.758Z,11.77
2017-09-22T11:44:07.342Z,10.10
2017-09-22T11:46:34.904Z,10.70
2017-09-22T11:49:03.325Z,11.03
2017-09-22T11:51:30.922Z,10.63
2017-09-22T11:53:58.484Z,10.73
2017-09-22T11:56:26.045Z,10.07
2017-09-22T11:58:54.215Z,10.50
2017-09-22T12:01:21.800Z,11.30
2017-09-22T12:03:50.153Z,11.60
2017-09-22T12:06:17.730Z,11.30
2017-09-22T12:08:45.310Z,10.00
2017-09-22T12:11:13.634Z,10.43
2017-09-22T12:13:41.200Z,10.37
2017-09-22T12:16:08.766Z,9.67
2017-09-22T12:18:36.342Z,10.27
2017-09-22T12:21:03.912Z,10.20
2017-09-22T12:23:31.445Z,8.93
2017-09-22T12:25:59.032Z,10.63
2017-09-22T12:28:26.611Z,10.30
2017-09-22T12:30:54.964Z,10.00
2017-09-22T12:33:22.525Z,10.17
2017-09-22T12:35:50.073Z,9.80
2017-09-22T12:38:17.696Z,10.00
2017-09-22T12:40:45.236Z,8.90
2017-09-22T12:43:12.797Z,8.87
2017-09-22T12:45:40.850Z,9.47
2017-09-22T12:48:09.172Z,8.90
2017-09-22T12:50:36.737Z,8.20
2017-09-22T12:53:04.307Z,8.73
2017-09-22T12:55:31.849Z,8.80
2017-09-22T12:57:59.522Z,8.03
2017-09-22T13:00:27.118Z,9.10
2017-09-22T13:02:54.685Z,7.50
2017-09-22T13:05:23.006Z,7.60
2017-09-22T13:07:50.597Z,7.30
2017-09-22T13:10:18.173Z,7.43
2017-09-22T13:12:45.744Z,7.93
2017-09-22T13:15:14.106Z,7.87
2017-09-22T13:17:41.686Z,7.33
2017-09-22T13:20:10.002Z,7.10
2017-09-22T13:22:37.573Z,6.90
2017-09-22T13:25:05.145Z,6.50
2017-09-22T13:27:32.700Z,7.37
2017-09-22T13:30:00.270Z,5.70
2017-09-22T13:32:27.837Z,7.67
2017-09-22T13:34:55.609Z,7.20
2017-09-22T13:37:23.189Z,7.17
2017-09-22T13:39:51.502Z,7.20
2017-09-22T13:42:19.074Z,7.50
2017-09-22T13:44:46.668Z,7.20
2017-09-22T13:47:14.274Z,7.60
2017-09-22T13:49:43.295Z,6.30
2017-09-22T13:52:10.849Z,6.47
2017-09-22T13:54:38.415Z,6.80
2017-09-22T13:57:05.964Z,7.30
2017-09-22T13:59:33.526Z,7.67
2017-09-22T14:02:01.191Z,6.90
2017-09-22T14:04:29.458Z,7.20
2017-09-22T14:06:57.052Z,6.93
2017-09-22T14:09:24.615Z,6.80
2017-09-22T14:11:52.191Z,7.00
2017-09-22T14:14:19.790Z,7.07
2017-09-22T14:16:47.346Z,7.00
2017-09-22T14:19:15.023Z,8.00
2017-09-22T14:21:42.585Z,6.80
2017-09-22T14:24:10.139Z,7.20
2017-09-22T14:26:37.731Z,7.40
2017-09-22T14:29:05.300Z,7.70
2017-09-22T14:31:32.867Z,6.70
2017-09-22T14:34:00.488Z,7.00
2017-09-22T14:36:28.062Z,6.80
2017-09-22T14:38:55.622Z,6.50
2017-09-22T14:41:23.193Z,7.20
2017-09-22T14:43:50.780Z,7.30
2017-09-22T14:46:18.364Z,6.60
2017-09-22T14:48:46.667Z,6.70
2017-09-22T14:51:14.261Z,6.87
2017-09-22T14:53:41.850Z,6.43
2017-09-22T14:56:10.232Z,6.00
2017-09-22T14:58:38.585Z,6.73
2017-09-22T15:01:06.518Z,7.10
2017-09-22T15:03:34.074Z,6.80
2017-09-22T15:06:01.639Z,6.30
2017-09-22T15:08:29.206Z,6.40
2017-09-22T15:10:56.799Z,6.63
2017-09-22T15:13:24.371Z,7.17
2017-09-22T15:15:52.709Z,7.17
2017-09-22T15:18:20.242Z,6.87
2017-09-22T15:20:47.825Z,6.70
2017-09-22T15:23:15.377Z,6.50
2017-09-22T15:25:42.947Z,7.03
2017-09-22T15:28:10.495Z,7.00
2017-09-22T15:30:38.095Z,6.73
2017-09-22T15:33:05.660Z,7.63
2017-09-22T15:35:33.222Z,6.77
2017-09-22T15:38:01.595Z,7.50
2017-09-22T15:40:29.162Z,7.33
2017-09-22T15:42:57.509Z,7.63
2017-09-22T15:45:25.080Z,7.33
2017-09-22T15:47:52.631Z,7.20
2017-09-22T15:50:20.214Z,7.30
2017-09-22T15:52:47.778Z,7.13
2017-09-22T15:55:15.333Z,7.20
2017-09-22T15:57:42.886Z,6.93
2017-09-22T16:00:10.441Z,6.80
2017-09-22T16:02:38.009Z,7.07
2017-09-22T16:05:05.596Z,6.87
2017-09-22T16:07:33.921Z,6.73
2017-09-22T16:10:01.493Z,8.77
2017-09-22T16:12:29.056Z,7.47
2017-09-22T16:14:56.626Z,6.87
2017-09-22T16:17:24.173Z,7.67
2017-09-22T16:19:51.762Z,7.10
2017-09-22T16:22:19.300Z,6.67
2017-09-22T16:24:46.916Z,7.40
2017-09-22T16:27:14.467Z,7.83
2017-09-22T16:29:42.076Z,14.10
2017-09-22T16:32:09.637Z,15.40
2017-09-22T16:34:37.214Z,12.23
2017-09-22T16:37:04.789Z,8.60
2017-09-22T16:39:33.105Z,9.23
2017-09-22T16:42:00.684Z,7.30
2017-09-22T16:44:28.243Z,7.30
2017-09-22T16:46:55.840Z,8.63
2017-09-22T16:49:23.425Z,8.33
2017-09-22T16:51:51.761Z,8.63
2017-09-22T16:54:19.322Z,8.00
2017-09-22T16:56:46.894Z,7.90
2017-09-22T16:59:15.332Z,8.47
2017-09-22T17:01:42.935Z,7.97
2017-09-22T17:04:10.487Z,7.73
2017-09-22T17:06:38.038Z,7.87
2017-09-22T17:09:05.594Z,8.20
2017-09-22T17:11:33.149Z,8.17
2017-09-22T17:14:00.765Z,8.20
2017-09-22T17:16:28.364Z,8.90
2017-09-22T17:18:55.920Z,9.07
2017-09-22T17:21:23.462Z,9.37
2017-09-22T17:23:51.034Z,8.73
2017-09-22T17:26:18.603Z,8.63
2017-09-22T17:28:46.345Z,8.90
2017-09-22T17:31:13.941Z,9.30
2017-09-22T17:33:41.527Z,10.60
2017-09-22T17:36:09.121Z,11.40
2017-09-22T17:38:36.686Z,11.10
2017-09-22T17:41:04.276Z,10.90
2017-09-22T17:43:31.832Z,11.60
2017-09-22T17:45:59.407Z,12.57
2017-09-22T17:48:26.990Z,11.10
2017-09-22T17:50:55.342Z,12.13
2017-09-22T17:53:22.909Z,11.27
2017-09-22T17:55:50.457Z,10.30
2017-09-22T17:58:18.018Z,9.97
2017-09-22T18:00:45.615Z,9.80
2017-09-22T18:03:13.960Z,10.30
2017-09-22T18:05:41.516Z,10.43
2017-09-22T18:08:09.098Z,10.10
2017-09-22T18:10:36.745Z,10.50
2017-09-22T18:13:04.328Z,10.10
2017-09-22T18:15:34.199Z,9.70
2017-09-22T18:18:01.941Z,10.30
2017-09-22T18:20:29.527Z,10.10
2017-09-22T18:22:57.230Z,11.00
2017-09-22T18:25:25.610Z,11.60
2017-09-22T18:27:54.060Z,11.70
2017-09-22T18:30:21.623Z,11.37
2017-09-22T18:32:49.200Z,11.00
2017-09-22T18:35:16.785Z,11.87
2017-09-22T18:37:45.159Z,11.80
2017-09-22T18:40:12.747Z,11.20
2017-09-22T18:42:40.314Z,11.40
2017-09-22T18:45:07.924Z,11.73
2017-09-22T18:47:35.506Z,11.07
2017-09-22T18:50:03.902Z,11.33
2017-09-22T18:52:32.256Z,11.17
2017-09-22T18:54:59.851Z,10.13
2017-09-22T18:57:27.428Z,11.10
2017-09-22T18:59:55.014Z,11.60
2017-09-22T19:02:22.596Z,9.80
2017-09-22T19:04:50.964Z,10.07
2017-09-22T19:07:18.541Z,10.47
2017-09-22T19:09:46.926Z,10.33
2017-09-22T19:12:15.278Z,11.07
2017-09-22T19:14:42.850Z,12.40
2017-09-22T19:17:10.446Z,12.77
2017-09-22T19:19:37.998Z,13.30
2017-09-22T19:22:06.341Z,13.63
2017-09-22T19:24:33.961Z,14.60
2017-09-22T19:27:01.621Z,13.83
2017-09-22T19:29:29.236Z,14.17
2017-09-22T19:31:56.824Z,12.80
2017-09-22T19:34:24.462Z,12.17
2017-09-22T19:36:52.034Z,12.60
2017-09-22T19:39:20.420Z,11.87
2017-09-22T19:41:48.758Z,11.80
2017-09-22T19:44:16.371Z,11.80
2017-09-22T19:46:43.973Z,11.87
2017-09-22T19:49:11.560Z,12.00
2017-09-22T19:51:39.150Z,12.40
2017-09-22T19:54:06.738Z,12.37
2017-09-22T19:56:34.306Z,11.83
2017-09-22T19:59:01.893Z,12.00
2017-09-22T20:01:29.550Z,11.90
2017-09-22T20:03:57.153Z,11.50
2017-09-22T20:06:24.765Z,11.10
2017-09-22T20:08:52.358Z,12.03
2017-09-22T20:11:20.703Z,12.20
2017-09-22T20:13:48.301Z,10.93
2017-09-22T20:16:16.643Z,18.17
2017-09-22T20:18:44.241Z,12.87
2017-09-22T20:21:12.676Z,11.93
2017-09-22T20:23:40.249Z,13.13
2017-09-22T20:26:07.872Z,12.90
2017-09-22T20:28:35.455Z,12.57
2017-09-22T20:31:03.092Z,13.10
2017-09-22T20:33:30.660Z,13.10
2017-09-22T20:35:58.282Z,14.90
2017-09-22T20:38:26.660Z,16.80
2017-09-22T20:40:55.038Z,18.50
2017-09-22T20:43:23.410Z,13.60
2017-09-22T20:45:51.020Z,14.27
2017-09-22T20:48:18.607Z,13.30
2017-09-22T20:50:46.174Z,13.33
2017-09-22T20:53:13.785Z,13.07
2017-09-22T20:55:41.337Z,12.17
2017-09-22T20:58:08.934Z,12.33
2017-09-22T21:00:36.516Z,13.47
2017-09-22T21:03:04.103Z,12.43
2017-09-22T21:05:32.467Z,13.33
2017-09-22T21:08:00.049Z,12.97
2017-09-22T21:10:28.385Z,14.23
2017-09-22T21:12:56.003Z,12.00
2017-09-22T21:15:23.675Z,12.33
2017-09-22T21:17:51.242Z,12.53
2017-09-22T21:20:18.826Z,12.40
2017-09-22T21:22:46.444Z,13.60
2017-09-22T21:25:14.050Z,12.53
2017-09-22T21:27:41.691Z,12.20
2017-09-22T21:30:09.282Z,13.57
2017-09-22T21:32:36.848Z,12.70
2017-09-22T21:35:04.419Z,13.07
2017-09-22T21:37:31.989Z,13.60
2017-09-22T21:40:00.360Z,13.50
2017-09-22T21:42:28.690Z,11.70
2017-09-22T21:44:56.260Z,12.90
2017-09-22T21:47:23.859Z,13.57
2017-09-22T21:49:51.456Z,13.00
2017-09-22T21:52:19.048Z,12.90
2017-09-22T21:54:46.858Z,13.37
2017-09-22T21:57:14.530Z,12.90
2017-09-22T21:59:42.155Z,13.30
2017-09-22T22:02:09.785Z,14.17
2017-09-22T22:04:43.076Z,13.40
2017-09-22T22:10:05.855Z,13.30
2017-09-22T22:12:33.461Z,11.90
2017-09-22T22:15:01.869Z,12.97
2017-09-22T22:17:29.503Z,13.10
2017-09-22T22:19:57.919Z,13.90
2017-09-22T22:22:25.553Z,14.77
2017-09-22T22:24:53.216Z,14.73
2017-09-22T22:27:20.840Z,14.23
2017-09-22T22:29:48.537Z,13.93
2017-09-22T22:32:16.144Z,13.83
2017-09-22T22:34:43.804Z,14.40
2017-09-22T22:37:11.420Z,13.90
2017-09-22T22:39:39.831Z,14.60
2017-09-22T22:42:07.454Z,13.90
2017-09-22T22:44:35.871Z,14.43
2017-09-22T22:47:03.511Z,14.13
2017-09-22T22:49:31.127Z,15.37
2017-09-22T22:51:58.760Z,14.10
2017-09-22T22:54:26.383Z,14.40
2017-09-22T22:56:54.773Z,14.13
2017-09-22T22:59:22.392Z,14.50
2017-09-22T23:01:49.993Z,15.10
2017-09-22T23:04:17.643Z,14.53
2017-09-22T23:06:46.078Z,15.23
2017-09-22T23:09:14.599Z,14.80
2017-09-22T23:11:43.024Z,16.50
2017-09-22T23:14:10.680Z,16.53
2017-09-22T23:16:38.336Z,16.23
2017-09-22T23:19:05.961Z,17.30
2017-09-22T23:21:34.362Z,16.40
2017-09-22T23:24:01.997Z,16.50
2017-09-22T23:26:29.644Z,15.30
2017-09-22T23:28:57.322Z,16.30
2017-09-22T23:31:25.761Z,15.53
2017-09-22T23:33:53.378Z,14.97
2017-09-22T23:36:21.777Z,15.20
2017-09-22T23:38:49.393Z,15.70
2017-09-22T23:41:17.063Z,16.50
2017-09-22T23:43:44.689Z,16.90
2017-09-22T23:46:12.321Z,15.90
2017-09-22T23:48:39.969Z,15.00
2017-09-22T23:51:08.390Z,15.97
2017-09-22T23:53:35.996Z,15.80
2017-09-22T23:56:04.391Z,15.77
2017-09-22T23:58:32.053Z,14.73
